sensor_id;sensor_type;location;lat;lon;timestamp;pressure;altitude;pressure_sealevel;temperature;humidity
78932;BME280;68331;53.362;55.932;2024-03-23T00:51:42;100221.69;;;-6.90;65.82
78932;BME280;68331;53.362;55.932;2024-03-23T00:54:08;100216.53;;;-6.91;65.92
78932;BME280;68331;53.362;55.932;2024-03-23T00:56:34;100225.91;;;-6.92;65.80
78932;BME280;68331;53.362;55.932;2024-03-23T00:59:00;100224.13;;;-6.93;65.83
78932;BME280;68331;53.362;55.932;2024-03-23T01:01:26;100222.38;;;-6.94;65.65
78932;BME280;68331;53.362;55.932;2024-03-23T01:03:51;100180.34;;;-7.17;65.42
78932;BME280;68331;53.362;55.932;2024-03-23T01:06:17;100215.66;;;-7.11;65.40
78932;BME280;68331;53.362;55.932;2024-03-23T01:08:44;100218.88;;;-7.15;65.93
78932;BME280;68331;53.362;55.932;2024-03-23T01:11:10;100220.78;;;-7.11;66.45
78932;BME280;68331;53.362;55.932;2024-03-23T01:13:36;100210.91;;;-7.02;65.94
78932;BME280;68331;53.362;55.932;2024-03-23T01:16:02;100211.94;;;-6.98;65.64
78932;BME280;68331;53.362;55.932;2024-03-23T01:18:28;100218.72;;;-6.99;65.66
78932;BME280;68331;53.362;55.932;2024-03-23T01:20:54;100214.00;;;-7.09;65.63
78932;BME280;68331;53.362;55.932;2024-03-23T01:23:20;100217.16;;;-7.15;66.08
78932;BME280;68331;53.362;55.932;2024-03-23T01:25:53;100214.41;;;-7.19;66.43
78932;BME280;68331;53.362;55.932;2024-03-23T01:28:20;100214.59;;;-7.15;66.21
78932;BME280;68331;53.362;55.932;2024-03-23T01:30:47;100212.03;;;-7.15;66.08
78932;BME280;68331;53.362;55.932;2024-03-23T01:33:13;100210.38;;;-7.14;65.94
78932;BME280;68331;53.362;55.932;2024-03-23T01:35:39;100203.06;;;-7.25;65.74
78932;BME280;68331;53.362;55.932;2024-03-23T01:38:05;100218.06;;;-7.34;65.79
78932;BME280;68331;53.362;55.932;2024-03-23T01:40:31;100208.94;;;-7.46;66.25
78932;BME280;68331;53.362;55.932;2024-03-23T01:43:01;100216.84;;;-7.60;66.06
78932;BME280;68331;53.362;55.932;2024-03-23T01:45:30;100220.50;;;-7.73;66.20
78932;BME280;68331;53.362;55.932;2024-03-23T01:47:56;100205.91;;;-7.75;66.55
78932;BME280;68331;53.362;55.932;2024-03-23T01:50:23;100221.53;;;-7.69;66.71
78932;BME280;68331;53.362;55.932;2024-03-23T01:52:52;100215.47;;;-7.71;66.31
78932;BME280;68331;53.362;55.932;2024-03-23T01:55:19;100215.63;;;-7.86;66.27
78932;BME280;68331;53.362;55.932;2024-03-23T01:57:45;100221.97;;;-7.96;66.36
78932;BME280;68331;53.362;55.932;2024-03-23T02:00:12;100222.72;;;-7.98;66.88
78932;BME280;68331;53.362;55.932;2024-03-23T02:02:45;100205.66;;;-7.98;67.02
78932;BME280;68331;53.362;55.932;2024-03-23T02:05:12;100217.44;;;-7.83;66.47
78932;BME280;68331;53.362;55.932;2024-03-23T02:07:39;100201.28;;;-7.82;66.33
78932;BME280;68331;53.362;55.932;2024-03-23T02:10:07;100211.75;;;-7.78;66.23
78932;BME280;68331;53.362;55.932;2024-03-23T02:12:34;100205.00;;;-7.76;66.05
78932;BME280;68331;53.362;55.932;2024-03-23T02:15:02;100216.50;;;-7.67;65.96
78932;BME280;68331;53.362;55.932;2024-03-23T02:17:34;100202.44;;;-7.76;65.73
78932;BME280;68331;53.362;55.932;2024-03-23T02:20:01;100208.38;;;-7.95;65.24
78932;BME280;68331;53.362;55.932;2024-03-23T02:22:37;100202.38;;;-8.13;65.32
78932;BME280;68331;53.362;55.932;2024-03-23T02:25:05;100199.44;;;-8.21;66.11
78932;BME280;68331;53.362;55.932;2024-03-23T02:27:31;100207.81;;;-8.07;66.02
78932;BME280;68331;53.362;55.932;2024-03-23T02:29:57;100217.53;;;-8.00;65.63
78932;BME280;68331;53.362;55.932;2024-03-23T02:32:23;100202.81;;;-7.86;64.94
78932;BME280;68331;53.362;55.932;2024-03-23T02:34:49;100205.66;;;-7.62;64.25
78932;BME280;68331;53.362;55.932;2024-03-23T02:37:15;100194.59;;;-7.61;63.59
78932;BME280;68331;53.362;55.932;2024-03-23T02:39:41;100199.00;;;-7.58;63.53
78932;BME280;68331;53.362;55.932;2024-03-23T02:42:07;100200.47;;;-7.44;63.23
78932;BME280;68331;53.362;55.932;2024-03-23T02:44:33;100203.28;;;-7.39;62.59
78932;BME280;68331;53.362;55.932;2024-03-23T02:46:59;100192.47;;;-7.52;63.13
78932;BME280;68331;53.362;55.932;2024-03-23T02:49:25;100199.47;;;-7.47;63.31
78932;BME280;68331;53.362;55.932;2024-03-23T02:51:51;100201.31;;;-7.45;63.12
78932;BME280;68331;53.362;55.932;2024-03-23T02:54:17;100203.13;;;-7.42;63.02
78932;BME280;68331;53.362;55.932;2024-03-23T02:56:43;100199.06;;;-7.37;63.19
78932;BME280;68331;53.362;55.932;2024-03-23T02:59:09;100201.88;;;-7.33;62.99
78932;BME280;68331;53.362;55.932;2024-03-23T03:01:35;100199.22;;;-7.34;62.82
78932;BME280;68331;53.362;55.932;2024-03-23T03:04:01;100204.84;;;-7.23;63.04
78932;BME280;68331;53.362;55.932;2024-03-23T03:06:27;100198.44;;;-7.14;62.50
78932;BME280;68331;53.362;55.932;2024-03-23T03:08:54;100202.16;;;-7.07;61.81
78932;BME280;68331;53.362;55.932;2024-03-23T03:11:20;100195.13;;;-6.92;61.64
78932;BME280;68331;53.362;55.932;2024-03-23T03:13:46;100196.69;;;-6.76;61.14
78932;BME280;68331;53.362;55.932;2024-03-23T03:16:12;100203.38;;;-6.59;60.93
78932;BME280;68331;53.362;55.932;2024-03-23T03:18:39;100207.09;;;-6.52;60.59
78932;BME280;68331;53.362;55.932;2024-03-23T03:21:06;100197.06;;;-6.46;60.04
78932;BME280;68331;53.362;55.932;2024-03-23T03:23:37;100185.72;;;-6.51;59.54
78932;BME280;68331;53.362;55.932;2024-03-23T03:26:04;100193.34;;;-6.54;59.98
78932;BME280;68331;53.362;55.932;2024-03-23T03:28:32;100190.78;;;-6.12;58.85
78932;BME280;68331;53.362;55.932;2024-03-23T03:30:59;100200.50;;;-5.81;57.59
78932;BME280;68331;53.362;55.932;2024-03-23T03:33:29;100190.19;;;-6.05;58.08
78932;BME280;68331;53.362;55.932;2024-03-23T03:35:55;100195.09;;;-6.11;59.08
78932;BME280;68331;53.362;55.932;2024-03-23T03:38:21;100192.53;;;-5.89;58.33
78932;BME280;68331;53.362;55.932;2024-03-23T03:40:47;100193.22;;;-5.01;56.76
78932;BME280;68331;53.362;55.932;2024-03-23T03:43:14;100190.81;;;-3.69;52.92
78932;BME280;68331;53.362;55.932;2024-03-23T03:45:40;100194.63;;;-2.66;50.39
78932;BME280;68331;53.362;55.932;2024-03-23T03:48:07;100158.09;;;-2.46;48.28
78932;BME280;68331;53.362;55.932;2024-03-23T03:50:34;100184.56;;;-1.85;47.94
78932;BME280;68331;53.362;55.932;2024-03-23T03:53:00;100158.72;;;-1.48;46.76
78932;BME280;68331;53.362;55.932;2024-03-23T03:55:26;100185.38;;;-1.50;46.57
78932;BME280;68331;53.362;55.932;2024-03-23T03:57:53;100185.38;;;-1.52;46.80
78932;BME280;68331;53.362;55.932;2024-03-23T04:00:19;100178.63;;;-1.03;45.61
78932;BME280;68331;53.362;55.932;2024-03-23T04:02:45;100176.91;;;-1.02;45.48
78932;BME280;68331;53.362;55.932;2024-03-23T04:05:12;100181.00;;;-1.13;45.89
78932;BME280;68331;53.362;55.932;2024-03-23T04:07:38;100171.69;;;-1.46;46.64
78932;BME280;68331;53.362;55.932;2024-03-23T04:10:04;100177.03;;;-1.78;47.33
78932;BME280;68331;53.362;55.932;2024-03-23T04:12:34;100180.66;;;-2.41;48.54
78932;BME280;68331;53.362;55.932;2024-03-23T04:15:00;100173.41;;;-2.54;49.67
78932;BME280;68331;53.362;55.932;2024-03-23T04:17:31;100172.34;;;-2.29;48.74
78932;BME280;68331;53.362;55.932;2024-03-23T04:19:58;100173.78;;;-2.05;48.53
78932;BME280;68331;53.362;55.932;2024-03-23T04:22:24;100175.47;;;-0.88;46.33
78932;BME280;68331;53.362;55.932;2024-03-23T04:24:55;100165.84;;;-0.48;44.24
78932;BME280;68331;53.362;55.932;2024-03-23T04:27:21;100174.56;;;-0.90;45.99
78932;BME280;68331;53.362;55.932;2024-03-23T04:29:51;100159.81;;;1.38;42.07
78932;BME280;68331;53.362;55.932;2024-03-23T04:32:17;100160.00;;;2.84;38.61
78932;BME280;68331;53.362;55.932;2024-03-23T04:34:44;100156.59;;;2.88;38.30
78932;BME280;68331;53.362;55.932;2024-03-23T04:37:10;100153.25;;;3.33;37.98
78932;BME280;68331;53.362;55.932;2024-03-23T04:39:37;100144.59;;;4.32;36.29
78932;BME280;68331;53.362;55.932;2024-03-23T04:42:03;100150.72;;;4.16;35.99
78932;BME280;68331;53.362;55.932;2024-03-23T04:44:30;100155.84;;;3.22;36.44
78932;BME280;68331;53.362;55.932;2024-03-23T04:46:57;100167.16;;;3.32;37.31
78932;BME280;68331;53.362;55.932;2024-03-23T04:49:24;100154.19;;;4.09;34.88
78932;BME280;68331;53.362;55.932;2024-03-23T04:51:51;100158.47;;;3.25;35.93
78932;BME280;68331;53.362;55.932;2024-03-23T04:54:17;100154.91;;;3.00;37.72
78932;BME280;68331;53.362;55.932;2024-03-23T04:56:44;100156.81;;;4.00;36.02
78932;BME280;68331;53.362;55.932;2024-03-23T04:59:10;100158.53;;;3.79;35.63
78932;BME280;68331;53.362;55.932;2024-03-23T05:01:37;100160.25;;;3.53;36.29
78932;BME280;68331;53.362;55.932;2024-03-23T05:04:09;100160.13;;;3.00;37.36
78932;BME280;68331;53.362;55.932;2024-03-23T05:06:35;100161.72;;;2.74;37.63
78932;BME280;68331;53.362;55.932;2024-03-23T05:09:01;100159.34;;;1.81;38.83
78932;BME280;68331;53.362;55.932;2024-03-23T05:11:38;100150.66;;;0.95;41.23
78932;BME280;68331;53.362;55.932;2024-03-23T05:14:04;100160.31;;;1.89;40.32
78932;BME280;68331;53.362;55.932;2024-03-23T05:16:30;100148.94;;;3.49;37.88
78932;BME280;68331;53.362;55.932;2024-03-23T05:18:56;100144.53;;;4.52;35.75
78932;BME280;68331;53.362;55.932;2024-03-23T05:21:22;100143.56;;;4.87;34.55
78932;BME280;68331;53.362;55.932;2024-03-23T05:23:48;100144.53;;;4.66;34.84
78932;BME280;68331;53.362;55.932;2024-03-23T05:26:14;100149.53;;;5.15;34.62
78932;BME280;68331;53.362;55.932;2024-03-23T05:28:40;100148.34;;;7.38;31.45
78932;BME280;68331;53.362;55.932;2024-03-23T05:31:06;100132.53;;;8.94;28.54
78932;BME280;68331;53.362;55.932;2024-03-23T05:33:32;100135.06;;;9.78;27.37
78932;BME280;68331;53.362;55.932;2024-03-23T05:36:00;100121.03;;;9.76;26.72
78932;BME280;68331;53.362;55.932;2024-03-23T05:38:26;100129.63;;;8.15;28.94
78932;BME280;68331;53.362;55.932;2024-03-23T05:40:59;100128.91;;;8.05;29.40
78932;BME280;68331;53.362;55.932;2024-03-23T05:43:26;100134.97;;;6.91;31.21
78932;BME280;68331;53.362;55.932;2024-03-23T05:45:56;100130.38;;;7.09;31.17
78932;BME280;68331;53.362;55.932;2024-03-23T05:48:23;100131.44;;;6.94;31.09
78932;BME280;68331;53.362;55.932;2024-03-23T05:50:50;100135.03;;;6.03;32.00
78932;BME280;68331;53.362;55.932;2024-03-23T05:53:16;100133.97;;;4.87;34.32
78932;BME280;68331;53.362;55.932;2024-03-23T05:55:43;100143.63;;;4.65;35.14
78932;BME280;68331;53.362;55.932;2024-03-23T05:58:10;100135.56;;;5.19;34.52
78932;BME280;68331;53.362;55.932;2024-03-23T06:00:36;100136.16;;;5.66;33.62
78932;BME280;68331;53.362;55.932;2024-03-23T06:03:02;100131.47;;;6.06;33.33
78932;BME280;68331;53.362;55.932;2024-03-23T06:05:28;100128.06;;;6.84;31.85
78932;BME280;68331;53.362;55.932;2024-03-23T06:07:53;100130.94;;;6.61;31.86
78932;BME280;68331;53.362;55.932;2024-03-23T06:10:20;100124.06;;;6.54;32.25
78932;BME280;68331;53.362;55.932;2024-03-23T06:12:46;100121.78;;;6.16;33.21
78932;BME280;68331;53.362;55.932;2024-03-23T06:15:12;100115.00;;;5.98;33.07
78932;BME280;68331;53.362;55.932;2024-03-23T06:17:38;100127.50;;;6.58;32.59
78932;BME280;68331;53.362;55.932;2024-03-23T06:20:05;100118.22;;;7.62;31.34
78932;BME280;68331;53.362;55.932;2024-03-23T06:22:36;100117.56;;;8.03;31.08
78932;BME280;68331;53.362;55.932;2024-03-23T06:25:02;100113.88;;;8.13;30.85
78932;BME280;68331;53.362;55.932;2024-03-23T06:27:29;100111.59;;;7.95;30.91
78932;BME280;68331;53.362;55.932;2024-03-23T06:29:55;100114.88;;;7.54;31.55
78932;BME280;68331;53.362;55.932;2024-03-23T06:32:21;100113.34;;;7.95;32.08
78932;BME280;68331;53.362;55.932;2024-03-23T06:34:47;100114.09;;;8.52;31.74
78932;BME280;68331;53.362;55.932;2024-03-23T06:37:13;100102.91;;;9.26;30.73
78932;BME280;68331;53.362;55.932;2024-03-23T06:39:39;100102.50;;;9.81;28.13
78932;BME280;68331;53.362;55.932;2024-03-23T06:42:05;100099.31;;;9.68;28.57
78932;BME280;68331;53.362;55.932;2024-03-23T06:44:31;100107.38;;;10.64;27.32
78932;BME280;68331;53.362;55.932;2024-03-23T06:46:57;100106.09;;;11.93;25.99
78932;BME280;68331;53.362;55.932;2024-03-23T06:49:23;100094.72;;;13.60;23.25
78932;BME280;68331;53.362;55.932;2024-03-23T06:51:50;100100.25;;;14.99;22.82
78932;BME280;68331;53.362;55.932;2024-03-23T06:54:19;100097.34;;;15.60;21.06
78932;BME280;68331;53.362;55.932;2024-03-23T06:56:46;100096.09;;;16.56;20.94
78932;BME280;68331;53.362;55.932;2024-03-23T06:59:12;100089.69;;;17.26;19.13
78932;BME280;68331;53.362;55.932;2024-03-23T07:01:38;100100.44;;;17.56;19.55
78932;BME280;68331;53.362;55.932;2024-03-23T07:04:04;100094.31;;;17.86;19.10
78932;BME280;68331;53.362;55.932;2024-03-23T07:06:31;100087.38;;;18.28;18.96
78932;BME280;68331;53.362;55.932;2024-03-23T07:08:57;100087.06;;;18.63;18.68
78932;BME280;68331;53.362;55.932;2024-03-23T07:11:23;100085.88;;;18.97;18.17
78932;BME280;68331;53.362;55.932;2024-03-23T07:13:51;100070.88;;;19.09;17.86
78932;BME280;68331;53.362;55.932;2024-03-23T07:16:18;100077.22;;;18.63;18.49
78932;BME280;68331;53.362;55.932;2024-03-23T07:18:44;100071.72;;;17.46;19.44
78932;BME280;68331;53.362;55.932;2024-03-23T07:21:10;100076.47;;;15.52;20.78
78932;BME280;68331;53.362;55.932;2024-03-23T07:23:36;100085.28;;;13.53;22.85
78932;BME280;68331;53.362;55.932;2024-03-23T07:26:03;100083.22;;;11.64;25.22
78932;BME280;68331;53.362;55.932;2024-03-23T07:28:31;100087.25;;;9.93;26.80
78932;BME280;68331;53.362;55.932;2024-03-23T07:31:02;100078.81;;;9.04;29.02
78932;BME280;68331;53.362;55.932;2024-03-23T07:33:28;100084.84;;;8.21;30.16
78932;BME280;68331;53.362;55.932;2024-03-23T07:35:54;100090.56;;;7.39;31.95
78932;BME280;68331;53.362;55.932;2024-03-23T07:38:20;100086.34;;;6.63;32.23
78932;BME280;68331;53.362;55.932;2024-03-23T07:40:46;100085.97;;;6.18;34.02
78932;BME280;68331;53.362;55.932;2024-03-23T07:43:12;100087.16;;;5.85;34.53
78932;BME280;68331;53.362;55.932;2024-03-23T07:45:38;100087.44;;;5.46;34.83
78932;BME280;68331;53.362;55.932;2024-03-23T07:48:04;100073.69;;;5.18;34.99
78932;BME280;68331;53.362;55.932;2024-03-23T07:50:30;100072.88;;;5.08;35.58
78932;BME280;68331;53.362;55.932;2024-03-23T07:52:56;100078.00;;;5.22;35.58
78932;BME280;68331;53.362;55.932;2024-03-23T07:55:22;100079.78;;;5.16;35.71
78932;BME280;68331;53.362;55.932;2024-03-23T07:57:48;100071.06;;;5.13;35.13
78932;BME280;68331;53.362;55.932;2024-03-23T08:00:16;100077.22;;;5.09;36.37
78932;BME280;68331;53.362;55.932;2024-03-23T08:02:42;100075.56;;;4.95;36.88
78932;BME280;68331;53.362;55.932;2024-03-23T08:05:08;100073.00;;;4.85;35.98
78932;BME280;68331;53.362;55.932;2024-03-23T08:07:34;100059.03;;;4.89;35.69
78932;BME280;68331;53.362;55.932;2024-03-23T08:10:00;100061.56;;;5.03;36.18
78932;BME280;68331;53.362;55.932;2024-03-23T08:12:29;100057.22;;;5.01;36.59
78932;BME280;68331;53.362;55.932;2024-03-23T08:14:55;100063.41;;;4.81;36.28
78932;BME280;68331;53.362;55.932;2024-03-23T08:17:22;100062.69;;;4.56;36.09
78932;BME280;68331;53.362;55.932;2024-03-23T08:19:48;100064.38;;;4.63;36.93
78932;BME280;68331;53.362;55.932;2024-03-23T08:22:14;100059.16;;;4.62;36.16
78932;BME280;68331;53.362;55.932;2024-03-23T08:24:40;100046.94;;;4.62;35.88
78932;BME280;68331;53.362;55.932;2024-03-23T08:27:06;100050.53;;;4.45;35.92
78932;BME280;68331;53.362;55.932;2024-03-23T08:29:32;100050.56;;;4.32;36.98
78932;BME280;68331;53.362;55.932;2024-03-23T08:31:58;100055.78;;;4.32;36.43
78932;BME280;68331;53.362;55.932;2024-03-23T08:34:24;100043.63;;;4.22;37.15
78932;BME280;68331;53.362;55.932;2024-03-23T08:36:50;100045.41;;;4.11;36.83
78932;BME280;68331;53.362;55.932;2024-03-23T08:39:16;100047.97;;;4.28;37.35
78932;BME280;68331;53.362;55.932;2024-03-23T08:41:42;100045.31;;;4.45;36.53
78932;BME280;68331;53.362;55.932;2024-03-23T08:44:12;100038.34;;;4.43;35.67
78932;BME280;68331;53.362;55.932;2024-03-23T08:46:37;100033.94;;;4.52;36.03
78932;BME280;68331;53.362;55.932;2024-03-23T08:49:04;100040.88;;;4.59;36.46
78932;BME280;68331;53.362;55.932;2024-03-23T08:51:29;100036.56;;;4.52;36.28
78932;BME280;68331;53.362;55.932;2024-03-23T08:53:55;100031.34;;;4.56;37.51
78932;BME280;68331;53.362;55.932;2024-03-23T08:56:21;100030.28;;;4.85;36.27
78932;BME280;68331;53.362;55.932;2024-03-23T08:58:47;100031.00;;;5.10;36.36
78932;BME280;68331;53.362;55.932;2024-03-23T09:01:13;100019.69;;;5.11;36.23
78932;BME280;68331;53.362;55.932;2024-03-23T09:03:40;100027.56;;;5.05;36.24
78932;BME280;68331;53.362;55.932;2024-03-23T09:06:14;100016.28;;;5.01;36.53
78932;BME280;68331;53.362;55.932;2024-03-23T09:08:41;100011.88;;;5.08;36.18
78932;BME280;68331;53.362;55.932;2024-03-23T09:11:09;100016.16;;;5.13;35.81
78932;BME280;68331;53.362;55.932;2024-03-23T09:13:36;100010.03;;;5.21;34.44
78932;BME280;68331;53.362;55.932;2024-03-23T09:16:04;100010.84;;;5.26;34.79
78932;BME280;68331;53.362;55.932;2024-03-23T09:18:35;100014.38;;;5.22;35.24
78932;BME280;68331;53.362;55.932;2024-03-23T09:21:11;100002.94;;;5.32;34.49
78932;BME280;68331;53.362;55.932;2024-03-23T09:23:37;99997.47;;;5.61;34.99
78932;BME280;68331;53.362;55.932;2024-03-23T09:26:03;100001.78;;;5.67;32.75
78932;BME280;68331;53.362;55.932;2024-03-23T09:28:29;100011.31;;;5.75;33.16
78932;BME280;68331;53.362;55.932;2024-03-23T09:31:02;100006.06;;;5.74;32.84
78932;BME280;68331;53.362;55.932;2024-03-23T09:33:28;99999.16;;;5.67;32.51
78932;BME280;68331;53.362;55.932;2024-03-23T09:35:55;99998.31;;;5.63;32.96
78932;BME280;68331;53.362;55.932;2024-03-23T09:38:24;100004.47;;;5.59;32.68
78932;BME280;68331;53.362;55.932;2024-03-23T09:40:53;99995.81;;;5.51;33.08
78932;BME280;68331;53.362;55.932;2024-03-23T09:43:19;99994.91;;;5.55;32.96
78932;BME280;68331;53.362;55.932;2024-03-23T09:45:46;99998.28;;;5.65;33.33
78932;BME280;68331;53.362;55.932;2024-03-23T09:48:12;99988.63;;;5.74;33.22
78932;BME280;68331;53.362;55.932;2024-03-23T09:50:43;99991.16;;;5.82;32.74
78932;BME280;68331;53.362;55.932;2024-03-23T09:53:11;99992.00;;;5.86;32.88
78932;BME280;68331;53.362;55.932;2024-03-23T09:55:38;99989.31;;;5.93;32.76
78932;BME280;68331;53.362;55.932;2024-03-23T09:58:05;99985.69;;;6.08;32.24
78932;BME280;68331;53.362;55.932;2024-03-23T10:00:32;99983.78;;;6.21;33.11
78932;BME280;68331;53.362;55.932;2024-03-23T10:02:59;99981.91;;;6.31;31.95
78932;BME280;68331;53.362;55.932;2024-03-23T10:05:28;99982.78;;;6.33;30.65
78932;BME280;68331;53.362;55.932;2024-03-23T10:07:55;99974.94;;;6.29;30.38
78932;BME280;68331;53.362;55.932;2024-03-23T10:10:21;99979.38;;;6.24;30.23
78932;BME280;68331;53.362;55.932;2024-03-23T10:12:50;99976.81;;;6.20;30.12
78932;BME280;68331;53.362;55.932;2024-03-23T10:15:23;99973.34;;;6.19;30.48
78932;BME280;68331;53.362;55.932;2024-03-23T10:17:50;99969.75;;;6.25;30.61
78932;BME280;68331;53.362;55.932;2024-03-23T10:20:21;99959.06;;;6.40;31.36
78932;BME280;68331;53.362;55.932;2024-03-23T10:22:50;99956.34;;;6.51;30.56
78932;BME280;68331;53.362;55.932;2024-03-23T10:25:23;99957.91;;;6.63;30.40
78932;BME280;68331;53.362;55.932;2024-03-23T10:27:58;99957.06;;;6.61;28.60
78932;BME280;68331;53.362;55.932;2024-03-23T10:30:25;99957.97;;;6.58;28.32
78932;BME280;68331;53.362;55.932;2024-03-23T10:33:10;99949.19;;;6.62;28.44
78932;BME280;68331;53.362;55.932;2024-03-23T10:35:37;99936.94;;;6.64;28.33
78932;BME280;68331;53.362;55.932;2024-03-23T10:38:05;99944.69;;;6.70;28.09
78932;BME280;68331;53.362;55.932;2024-03-23T10:40:36;99936.72;;;6.78;29.01
78932;BME280;68331;53.362;55.932;2024-03-23T10:43:06;99939.28;;;6.81;29.53
78932;BME280;68331;53.362;55.932;2024-03-23T10:45:34;99937.59;;;6.77;29.40
78932;BME280;68331;53.362;55.932;2024-03-23T10:48:02;99936.63;;;6.84;29.79
78932;BME280;68331;53.362;55.932;2024-03-23T10:50:28;99933.00;;;6.93;28.95
78932;BME280;68331;53.362;55.932;2024-03-23T10:52:54;99936.50;;;6.92;28.78
78932;BME280;68331;53.362;55.932;2024-03-23T10:55:25;99931.28;;;6.90;28.39
78932;BME280;68331;53.362;55.932;2024-03-23T10:57:54;99930.38;;;6.93;28.11
78932;BME280;68331;53.362;55.932;2024-03-23T11:00:21;99926.00;;;6.92;28.02
78932;BME280;68331;53.362;55.932;2024-03-23T11:02:48;99933.09;;;6.87;28.51
78932;BME280;68331;53.362;55.932;2024-03-23T11:05:33;99939.34;;;6.78;28.18
78932;BME280;68331;53.362;55.932;2024-03-23T11:08:00;99931.56;;;6.73;28.92
78932;BME280;68331;53.362;55.932;2024-03-23T11:10:30;99931.63;;;6.67;28.85
78932;BME280;68331;53.362;55.932;2024-03-23T11:12:57;99927.38;;;6.59;28.62
78932;BME280;68331;53.362;55.932;2024-03-23T11:15:23;99926.56;;;6.55;29.28
78932;BME280;68331;53.362;55.932;2024-03-23T11:18:06;99923.94;;;6.55;29.04
78932;BME280;68331;53.362;55.932;2024-03-23T11:20:36;99926.59;;;6.52;29.20
78932;BME280;68331;53.362;55.932;2024-03-23T11:23:02;99924.88;;;6.49;29.45
78932;BME280;68331;53.362;55.932;2024-03-23T11:25:29;99919.72;;;6.45;29.38
78932;BME280;68331;53.362;55.932;2024-03-23T11:27:56;99917.19;;;6.37;28.95
78932;BME280;68331;53.362;55.932;2024-03-23T11:30:23;99917.28;;;6.31;29.08
78932;BME280;68331;53.362;55.932;2024-03-23T11:32:51;99919.84;;;6.36;30.24
78932;BME280;68331;53.362;55.932;2024-03-23T11:35:37;99915.47;;;6.36;30.73
78932;BME280;68331;53.362;55.932;2024-03-23T11:38:07;99915.50;;;6.32;30.89
78932;BME280;68331;53.362;55.932;2024-03-23T11:40:35;99913.78;;;6.31;30.36
78932;BME280;68331;53.362;55.932;2024-03-23T11:43:02;99911.25;;;6.24;30.48
78932;BME280;68331;53.362;55.932;2024-03-23T11:45:29;99913.63;;;6.43;32.08
78932;BME280;68331;53.362;55.932;2024-03-23T11:48:18;99908.22;;;6.53;31.31
78932;BME280;68331;53.362;55.932;2024-03-23T11:50:49;99913.41;;;6.58;31.33
78932;BME280;68331;53.362;55.932;2024-03-23T11:53:20;99913.59;;;6.46;31.48
78932;BME280;68331;53.362;55.932;2024-03-23T11:55:57;99903.34;;;6.27;31.75
78932;BME280;68331;53.362;55.932;2024-03-23T11:58:25;99899.94;;;6.22;31.91
78932;BME280;68331;53.362;55.932;2024-03-23T12:00:58;99899.16;;;6.14;31.99
78932;BME280;68331;53.362;55.932;2024-03-23T12:03:25;99900.94;;;6.12;31.98
78932;BME280;68331;53.362;55.932;2024-03-23T12:05:53;99903.47;;;6.18;31.45
78932;BME280;68331;53.362;55.932;2024-03-23T12:10:53;99901.69;;;6.22;30.97
78932;BME280;68331;53.362;55.932;2024-03-23T12:13:30;99902.47;;;6.28;30.67
78932;BME280;68331;53.362;55.932;2024-03-23T12:16:18;99896.34;;;6.28;30.38
78932;BME280;68331;53.362;55.932;2024-03-23T12:18:47;99898.19;;;6.21;31.20
78932;BME280;68331;53.362;55.932;2024-03-23T12:21:15;99900.03;;;6.16;31.50
78932;BME280;68331;53.362;55.932;2024-03-23T12:23:41;99887.88;;;6.09;31.64
78932;BME280;68331;53.362;55.932;2024-03-23T12:26:08;99888.03;;;6.00;32.24
78932;BME280;68331;53.362;55.932;2024-03-23T12:28:34;99897.81;;;5.79;33.63
78932;BME280;68331;53.362;55.932;2024-03-23T12:31:00;99891.03;;;5.63;33.53
78932;BME280;68331;53.362;55.932;2024-03-23T12:33:26;99889.41;;;5.53;33.88
78932;BME280;68331;53.362;55.932;2024-03-23T12:35:52;99892.25;;;5.30;34.05
78932;BME280;68331;53.362;55.932;2024-03-23T12:38:19;99898.47;;;5.15;34.37
78932;BME280;68331;53.362;55.932;2024-03-23T12:40:51;99886.44;;;4.99;35.03
78932;BME280;68331;53.362;55.932;2024-03-23T12:43:17;99891.72;;;4.89;35.65
78932;BME280;68331;53.362;55.932;2024-03-23T12:45:47;99890.91;;;4.81;35.50
78932;BME280;68331;53.362;55.932;2024-03-23T12:48:14;99881.47;;;4.66;36.16
78932;BME280;68331;53.362;55.932;2024-03-23T12:50:40;99885.00;;;4.55;37.01
78932;BME280;68331;53.362;55.932;2024-03-23T12:53:06;99888.56;;;4.45;37.53
78932;BME280;68331;53.362;55.932;2024-03-23T12:55:32;99858.22;;;4.28;37.37
78932;BME280;68331;53.362;55.932;2024-03-23T12:58:00;99889.50;;;4.37;37.56
78932;BME280;68331;53.362;55.932;2024-03-23T13:00:26;99888.69;;;4.28;37.67
78932;BME280;68331;53.362;55.932;2024-03-23T13:02:52;99893.94;;;4.18;37.84
78932;BME280;68331;53.362;55.932;2024-03-23T13:05:18;99886.16;;;4.09;37.61
78932;BME280;68331;53.362;55.932;2024-03-23T13:07:44;99888.81;;;3.95;37.71
78932;BME280;68331;53.362;55.932;2024-03-23T13:10:10;99884.56;;;3.78;38.02
78932;BME280;68331;53.362;55.932;2024-03-23T13:12:36;99889.78;;;3.70;38.57
78932;BME280;68331;53.362;55.932;2024-03-23T13:15:02;99881.94;;;3.70;38.86
78932;BME280;68331;53.362;55.932;2024-03-23T13:17:32;99887.19;;;3.71;38.96
78932;BME280;68331;53.362;55.932;2024-03-23T13:19:58;99892.41;;;3.68;39.63
78932;BME280;68331;53.362;55.932;2024-03-23T13:22:24;99884.59;;;3.68;39.28
78932;BME280;68331;53.362;55.932;2024-03-23T13:24:50;99883.72;;;3.63;39.04
78932;BME280;68331;53.362;55.932;2024-03-23T13:27:16;99880.28;;;3.47;39.61
78932;BME280;68331;53.362;55.932;2024-03-23T13:29:42;99890.75;;;3.34;40.03
78932;BME280;68331;53.362;55.932;2024-03-23T13:32:08;99889.91;;;3.24;40.67
78932;BME280;68331;53.362;55.932;2024-03-23T13:34:35;99884.69;;;3.18;40.95
78932;BME280;68331;53.362;55.932;2024-03-23T13:37:01;99883.84;;;3.10;41.63
78932;BME280;68331;53.362;55.932;2024-03-23T13:39:27;99861.25;;;2.90;41.60
78932;BME280;68331;53.362;55.932;2024-03-23T13:41:54;99872.56;;;2.94;42.12
78932;BME280;68331;53.362;55.932;2024-03-23T13:44:22;99877.75;;;2.83;41.88